createdAt,value
2023-03-20T00:01:21.652Z,8.65
2023-03-20T00:03:49.206Z,7.50
2023-03-20T00:06:21.483Z,10.77
2023-03-20T00:08:50.019Z,7.60
2023-03-20T00:11:28.814Z,7.53
2023-03-20T00:14:04.146Z,10.05
2023-03-20T00:16:33.282Z,8.02
2023-03-20T00:19:00.617Z,14.00
2023-03-20T00:21:28.048Z,10.00
2023-03-20T00:23:56.638Z,7.68
2023-03-20T00:26:26.711Z,8.40
2023-03-20T00:28:54.214Z,6.40
2023-03-20T00:31:29.404Z,7.22
2023-03-20T00:33:58.747Z,6.25
2023-03-20T00:36:26.841Z,8.35
2023-03-20T00:38:54.435Z,7.13
2023-03-20T00:41:38.444Z,6.07
2023-03-20T00:44:19.112Z,6.40
2023-03-20T00:46:47.377Z,7.05
2023-03-20T00:49:14.717Z,7.28
2023-03-20T00:51:42.484Z,5.72
2023-03-20T00:54:13.730Z,6.28
2023-03-20T00:56:45.813Z,5.38
2023-03-20T00:59:21.228Z,5.78
2023-03-20T01:01:48.627Z,7.63
2023-03-20T01:04:17.625Z,5.85
2023-03-20T01:06:45.173Z,5.72
2023-03-20T01:09:12.878Z,4.70
2023-03-20T01:11:40.396Z,6.00
2023-03-20T01:14:13.509Z,5.65
2023-03-20T01:16:40.949Z,4.80
2023-03-20T01:19:14.390Z,5.55
2023-03-20T01:21:42.289Z,6.07
2023-03-20T01:24:09.805Z,4.18
2023-03-20T01:26:38.697Z,6.13
2023-03-20T01:29:19.658Z,6.85
2023-03-20T01:31:47.628Z,5.28
2023-03-20T01:34:16.630Z,5.57
2023-03-20T01:36:51.887Z,5.25
2023-03-20T01:39:21.908Z,6.88
2023-03-20T01:41:49.872Z,6.88
2023-03-20T01:44:22.307Z,7.70
2023-03-20T01:46:54.197Z,4.88
2023-03-20T01:49:21.672Z,4.78
2023-03-20T01:51:51.278Z,4.93
2023-03-20T01:54:28.960Z,5.47
2023-03-20T01:57:22.293Z,5.13
2023-03-20T02:00:01.633Z,6.72
2023-03-20T02:02:31.806Z,4.15
2023-03-20T02:05:03.641Z,3.42
2023-03-20T02:07:31.603Z,4.53
2023-03-20T02:10:05.633Z,4.18
2023-03-20T02:12:51.794Z,3.95
2023-03-20T02:15:30.593Z,5.03
2023-03-20T02:18:13.425Z,6.30
2023-03-20T02:20:56.874Z,5.10
2023-03-20T02:23:46.781Z,3.92
2023-03-20T02:26:16.271Z,3.95
2023-03-20T02:29:05.881Z,3.70
2023-03-20T02:31:48.054Z,3.40
2023-03-20T02:34:29.656Z,5.10
2023-03-20T02:37:15.649Z,2.95
2023-03-20T02:39:48.825Z,3.00
2023-03-20T02:42:28.686Z,4.35
2023-03-20T02:45:06.960Z,3.50
2023-03-20T02:47:42.670Z,8.35
2023-03-20T02:50:23.489Z,5.65
2023-03-20T02:53:12.856Z,3.47
2023-03-20T02:55:45.163Z,3.08
2023-03-20T02:58:16.163Z,2.95
2023-03-20T03:01:10.450Z,2.97
2023-03-20T03:03:56.568Z,3.47
2023-03-20T03:06:35.990Z,2.83
2023-03-20T03:09:09.516Z,3.88
2023-03-20T03:11:38.117Z,4.15
2023-03-20T03:14:05.833Z,5.40
2023-03-20T03:16:35.375Z,3.65
2023-03-20T03:19:08.717Z,3.53
2023-03-20T03:21:37.057Z,2.50
2023-03-20T03:24:04.823Z,4.25
2023-03-20T03:26:37.890Z,3.40
2023-03-20T03:29:17.070Z,3.92
2023-03-20T03:31:45.593Z,4.40
2023-03-20T03:34:14.280Z,2.83
2023-03-20T03:37:02.774Z,4.53
2023-03-20T03:39:58.153Z,2.70
2023-03-20T03:42:31.202Z,4.28
2023-03-20T03:45:22.602Z,2.65
2023-03-20T03:47:57.369Z,4.72
2023-03-20T03:50:56.604Z,4.47
2023-03-20T03:53:26.553Z,4.05
2023-03-20T03:55:56.550Z,3.83
2023-03-20T03:58:41.049Z,5.03
2023-03-20T04:01:11.737Z,3.28
2023-03-20T04:03:42.974Z,3.50
2023-03-20T04:06:12.452Z,3.05
2023-03-20T04:08:43.243Z,3.03
2023-03-20T04:11:21.170Z,5.30
2023-03-20T04:13:49.866Z,4.07
2023-03-20T04:16:17.798Z,4.75
2023-03-20T04:18:45.592Z,7.20
2023-03-20T04:21:15.883Z,5.53
2023-03-20T04:23:44.338Z,4.32
2023-03-20T04:26:12.122Z,4.32
2023-03-20T04:28:39.545Z,6.13
2023-03-20T04:31:15.577Z,4.53
2023-03-20T04:33:54.900Z,3.65
2023-03-20T04:36:27.086Z,3.40
2023-03-20T04:38:57.507Z,3.42
2023-03-20T04:41:25.623Z,3.65
2023-03-20T04:43:56.040Z,2.42
2023-03-20T04:46:24.418Z,3.03
2023-03-20T04:48:52.028Z,3.58
2023-03-20T04:51:20.274Z,4.07
2023-03-20T04:53:53.256Z,2.97
2023-03-20T04:56:20.731Z,2.90
2023-03-20T04:58:49.949Z,4.80
2023-03-20T05:01:19.668Z,4.78
2023-03-20T05:03:47.161Z,5.35
2023-03-20T05:06:14.745Z,3.70
2023-03-20T05:08:44.088Z,4.65
2023-03-20T05:11:11.505Z,6.60
2023-03-20T05:13:57.390Z,5.35
2023-03-20T05:16:25.465Z,5.22
2023-03-20T05:22:01.898Z,5.95
2023-03-20T05:24:42.217Z,6.90
2023-03-20T05:27:29.818Z,7.93
2023-03-20T05:30:15.943Z,9.73
2023-03-20T05:33:06.272Z,6.72
2023-03-20T05:35:42.458Z,6.45
2023-03-20T05:38:22.769Z,6.78
2023-03-20T05:41:13.015Z,7.65
2023-03-20T05:43:59.826Z,9.00
2023-03-20T05:46:43.905Z,7.10
2023-03-20T05:49:41.569Z,7.88
2023-03-20T05:52:24.663Z,7.72
2023-03-20T05:55:06.487Z,8.15
2023-03-20T05:57:54.046Z,9.38
2023-03-20T06:00:40.206Z,8.32
2023-03-20T06:03:25.934Z,8.75
2023-03-20T06:06:05.248Z,10.73
2023-03-20T06:08:32.956Z,11.60
2023-03-20T06:11:01.128Z,10.73
2023-03-20T06:13:28.848Z,9.68
2023-03-20T06:15:56.361Z,11.98
2023-03-20T06:18:24.045Z,12.15
2023-03-20T06:20:55.307Z,10.07
2023-03-20T06:23:23.327Z,13.07
2023-03-20T06:25:51.300Z,10.98
2023-03-20T06:28:20.687Z,11.48
2023-03-20T06:30:54.528Z,10.18
2023-03-20T06:33:23.755Z,11.50
2023-03-20T06:36:01.405Z,11.88
2023-03-20T06:38:31.570Z,12.07
2023-03-20T06:41:04.225Z,12.48
2023-03-20T06:43:32.592Z,10.52
2023-03-20T06:46:00.581Z,11.15
2023-03-20T06:48:30.683Z,13.82
2023-03-20T06:50:58.278Z,13.45
2023-03-20T06:53:31.840Z,11.10
2023-03-20T06:56:12.272Z,13.25
2023-03-20T06:58:41.412Z,10.90
2023-03-20T07:01:10.604Z,13.90
2023-03-20T07:03:40.120Z,14.77
2023-03-20T07:06:09.208Z,11.73
2023-03-20T07:08:37.983Z,11.32
2023-03-20T07:11:05.791Z,12.32
2023-03-20T07:13:33.492Z,12.38
2023-03-20T07:16:08.954Z,12.90
2023-03-20T07:18:40.799Z,14.18
2023-03-20T07:21:08.946Z,10.27
2023-03-20T07:23:37.223Z,14.15
2023-03-20T07:26:06.781Z,13.77
2023-03-20T07:28:34.762Z,9.77
2023-03-20T07:31:27.789Z,12.98
2023-03-20T07:34:24.149Z,12.40
2023-03-20T07:36:52.431Z,12.63
2023-03-20T07:39:21.875Z,14.18
2023-03-20T07:42:13.801Z,16.40
2023-03-20T07:44:50.851Z,15.63
2023-03-20T07:47:18.347Z,12.32
2023-03-20T07:49:46.816Z,13.18
2023-03-20T07:52:14.288Z,11.85
2023-03-20T07:54:41.688Z,14.02
2023-03-20T07:57:09.007Z,12.50
2023-03-20T07:59:36.347Z,11.32
2023-03-20T08:02:03.713Z,11.75
2023-03-20T08:04:31.081Z,17.48
2023-03-20T08:06:58.458Z,23.83
2023-03-20T08:09:26.260Z,8.18
2023-03-20T08:11:53.589Z,9.98
2023-03-20T08:14:21.036Z,10.88
2023-03-20T08:16:56.334Z,10.85
2023-03-20T08:19:30.014Z,9.07
2023-03-20T08:21:57.397Z,15.68
2023-03-20T08:24:24.734Z,9.10
2023-03-20T08:26:52.589Z,9.00
2023-03-20T08:29:20.697Z,11.70
2023-03-20T08:31:48.070Z,11.68
2023-03-20T08:34:15.588Z,8.25
2023-03-20T08:36:42.989Z,13.27
2023-03-20T08:39:10.885Z,8.88
2023-03-20T08:41:43.652Z,8.40
2023-03-20T08:44:11.741Z,6.53
2023-03-20T08:46:39.919Z,8.35
2023-03-20T08:49:07.330Z,8.80
2023-03-20T08:51:34.710Z,13.88
2023-03-20T08:54:02.079Z,8.23
2023-03-20T08:56:29.373Z,8.10
2023-03-20T08:58:56.708Z,8.05
2023-03-20T09:01:28.409Z,7.35
2023-03-20T09:04:00.261Z,7.30
2023-03-20T09:06:28.064Z,8.63
2023-03-20T09:08:57.164Z,8.07
2023-03-20T09:11:24.510Z,16.00
2023-03-20T09:13:51.797Z,6.95
2023-03-20T09:16:19.863Z,9.75
2023-03-20T09:18:47.362Z,7.53
2023-03-20T09:21:14.757Z,7.93
2023-03-20T09:23:42.210Z,10.95
2023-03-20T09:26:09.575Z,8.60
2023-03-20T09:28:37.008Z,9.68
2023-03-20T09:31:04.530Z,5.82
2023-03-20T09:33:31.844Z,6.20
2023-03-20T09:35:59.194Z,7.18
2023-03-20T09:38:26.566Z,4.93
2023-03-20T09:40:56.102Z,5.22
2023-03-20T09:43:37.425Z,5.47
2023-03-20T09:46:18.581Z,4.45
2023-03-20T09:48:57.834Z,4.43
2023-03-20T09:51:48.669Z,6.50
2023-03-20T09:54:22.091Z,4.07
2023-03-20T09:56:50.989Z,4.18
2023-03-20T09:59:18.495Z,5.25
2023-03-20T10:01:50.713Z,12.38
2023-03-20T10:04:18.169Z,5.28
2023-03-20T10:06:45.556Z,7.50
2023-03-20T10:09:27.471Z,5.10
2023-03-20T10:12:24.954Z,4.82
2023-03-20T10:15:02.063Z,4.75
2023-03-20T10:18:05.619Z,7.55
2023-03-20T10:20:40.472Z,9.02
2023-03-20T10:23:23.907Z,5.57
2023-03-20T10:25:54.083Z,5.82
2023-03-20T10:28:24.445Z,3.92
2023-03-20T10:31:07.358Z,2.88
2023-03-20T10:34:01.030Z,4.80
2023-03-20T10:36:52.705Z,5.45
2023-03-20T10:39:32.000Z,5.85
2023-03-20T10:42:02.123Z,7.20
2023-03-20T10:44:40.624Z,2.30
2023-03-20T10:47:10.321Z,5.47
2023-03-20T10:49:50.562Z,9.05
2023-03-20T10:52:27.734Z,7.10
2023-03-20T10:54:58.213Z,4.28
2023-03-20T10:57:27.700Z,3.97
2023-03-20T10:59:56.430Z,2.95
2023-03-20T11:02:27.574Z,3.13
2023-03-20T11:04:54.979Z,2.55
2023-03-20T11:07:28.190Z,5.90
2023-03-20T11:10:04.710Z,2.83
2023-03-20T11:12:45.805Z,3.88
2023-03-20T11:15:26.334Z,3.85
2023-03-20T11:18:15.556Z,3.47
2023-03-20T11:20:54.426Z,3.03
2023-03-20T11:23:26.182Z,2.40
2023-03-20T11:26:00.549Z,1.90
2023-03-20T11:28:38.156Z,4.97
2023-03-20T11:31:11.388Z,1.85
2023-03-20T11:33:59.636Z,1.40
2023-03-20T11:36:31.088Z,3.53
2023-03-20T11:39:05.816Z,2.95
2023-03-20T11:41:33.489Z,2.25
2023-03-20T11:44:00.914Z,4.75
2023-03-20T11:46:28.823Z,3.33
2023-03-20T11:49:29.724Z,2.67
2023-03-20T11:52:01.957Z,2.45
2023-03-20T11:54:29.270Z,1.35
2023-03-20T11:57:00.152Z,3.45
2023-03-20T11:59:35.109Z,2.53
2023-03-20T12:02:04.308Z,2.28
2023-03-20T12:04:43.929Z,1.60
2023-03-20T12:07:13.188Z,3.00
2023-03-20T12:09:46.549Z,2.50
2023-03-20T12:12:22.957Z,4.45
2023-03-20T12:15:09.935Z,3.08
2023-03-20T12:18:15.724Z,4.38
2023-03-20T12:21:01.676Z,3.58
2023-03-20T12:23:42.218Z,7.30
2023-03-20T12:26:28.252Z,2.95
2023-03-20T12:29:11.015Z,2.45
2023-03-20T12:31:46.080Z,2.78
2023-03-20T12:34:20.263Z,12.13
2023-03-20T12:36:49.124Z,2.10
2023-03-20T12:39:18.379Z,2.63
2023-03-20T12:42:10.988Z,2.25
2023-03-20T12:44:55.855Z,3.47
2023-03-20T12:47:23.634Z,5.07
2023-03-20T12:50:20.514Z,2.78
2023-03-20T12:53:15.123Z,3.83
2023-03-20T12:56:00.598Z,2.00
2023-03-20T12:58:27.960Z,5.13
2023-03-20T13:01:14.371Z,3.33
2023-03-20T13:04:00.460Z,3.80
2023-03-20T13:06:37.051Z,4.13
2023-03-20T13:09:31.841Z,4.53
2023-03-20T13:12:28.543Z,5.07
2023-03-20T13:15:17.919Z,1.90
2023-03-20T13:17:53.072Z,2.72
2023-03-20T13:20:20.481Z,4.20
2023-03-20T13:22:59.960Z,6.63
2023-03-20T13:25:43.554Z,3.40
2023-03-20T13:28:25.555Z,1.92
2023-03-20T13:31:14.106Z,3.75
2023-03-20T13:33:50.619Z,2.15
2023-03-20T13:36:45.905Z,3.17
2023-03-20T13:39:23.673Z,3.13
2023-03-20T13:41:52.106Z,2.53
2023-03-20T13:44:21.031Z,2.30
2023-03-20T13:46:56.476Z,2.58
2023-03-20T13:49:39.754Z,4.05
2023-03-20T13:52:15.441Z,2.70
2023-03-20T13:55:19.992Z,5.78
2023-03-20T13:58:16.885Z,1.80
2023-03-20T14:00:55.872Z,4.07
2023-03-20T14:03:31.478Z,4.30
2023-03-20T14:05:58.812Z,4.80
2023-03-20T14:08:32.612Z,1.88
2023-03-20T14:11:07.395Z,3.42
2023-03-20T14:13:34.826Z,3.95
2023-03-20T14:16:03.985Z,2.55
2023-03-20T14:18:31.547Z,6.45
2023-03-20T14:21:01.039Z,3.03
2023-03-20T14:23:50.589Z,2.53
2023-03-20T14:26:26.185Z,4.00
2023-03-20T14:28:56.384Z,3.95
2023-03-20T14:31:37.747Z,2.53
2023-03-20T14:34:09.580Z,3.88
2023-03-20T14:37:04.010Z,7.68
2023-03-20T14:39:54.902Z,2.58
2023-03-20T14:42:39.724Z,3.95
2023-03-20T14:47:57.535Z,3.88
2023-03-20T14:50:36.770Z,2.45
2023-03-20T14:53:20.109Z,3.42
2023-03-20T14:55:56.631Z,2.53
2023-03-20T14:58:57.789Z,5.68
2023-03-20T15:01:27.548Z,5.43
2023-03-20T15:04:02.555Z,2.20
2023-03-20T15:06:30.674Z,3.60
2023-03-20T15:09:06.917Z,6.05
2023-03-20T15:11:34.826Z,3.28
2023-03-20T15:14:03.702Z,2.28
2023-03-20T15:16:32.466Z,4.20
2023-03-20T15:18:59.858Z,3.85
2023-03-20T15:21:40.745Z,3.08
2023-03-20T15:24:08.256Z,2.63
2023-03-20T15:26:35.858Z,2.05
2023-03-20T15:29:07.938Z,2.13
2023-03-20T15:31:37.277Z,2.60
2023-03-20T15:34:08.514Z,6.88
2023-03-20T15:36:37.150Z,3.15
2023-03-20T15:39:16.170Z,2.55
2023-03-20T15:41:50.426Z,4.28
2023-03-20T15:44:21.055Z,2.30
2023-03-20T15:47:02.182Z,6.88
2023-03-20T15:49:31.607Z,3.05
2023-03-20T15:52:02.201Z,3.90
2023-03-20T15:54:29.624Z,2.63
2023-03-20T15:57:00.957Z,3.35
2023-03-20T15:59:30.506Z,5.05
2023-03-20T16:01:58.621Z,2.15
2023-03-20T16:04:26.329Z,8.88
2023-03-20T16:07:00.740Z,2.80
2023-03-20T16:12:00.368Z,5.85
2023-03-20T16:14:32.297Z,1.80
2023-03-20T16:17:00.717Z,2.30
2023-03-20T16:19:29.036Z,2.88
2023-03-20T16:22:02.029Z,3.60
2023-03-20T16:24:36.866Z,4.65
2023-03-20T16:27:10.461Z,3.63
2023-03-20T16:29:38.237Z,4.50
2023-03-20T16:32:18.849Z,5.03
2023-03-20T16:34:48.614Z,4.53
2023-03-20T16:37:25.322Z,1.77
2023-03-20T16:40:19.686Z,5.43
2023-03-20T16:42:47.467Z,1.60
2023-03-20T16:45:21.272Z,3.58
2023-03-20T16:47:48.940Z,3.97
2023-03-20T16:50:23.650Z,2.33
2023-03-20T16:52:52.664Z,5.05
2023-03-20T16:55:29.854Z,4.53
2023-03-20T16:57:59.404Z,3.28
2023-03-20T17:00:29.144Z,2.72
2023-03-20T17:03:16.549Z,5.15
2023-03-20T17:05:53.606Z,2.40
2023-03-20T17:08:50.578Z,3.35
2023-03-20T17:11:32.813Z,2.65
2023-03-20T17:14:00.261Z,4.35
2023-03-20T17:16:27.630Z,4.65
2023-03-20T17:19:11.059Z,4.53
2023-03-20T17:21:38.476Z,6.05
2023-03-20T17:24:06.037Z,3.53
2023-03-20T17:26:33.389Z,2.03
2023-03-20T17:29:01.294Z,4.57
2023-03-20T17:31:29.294Z,3.58
2023-03-20T17:33:56.845Z,6.35
2023-03-20T17:36:28.529Z,3.90
2023-03-20T17:38:56.689Z,5.53
2023-03-20T17:41:24.290Z,6.95
2023-03-20T17:43:51.841Z,9.75
2023-03-20T17:46:30.525Z,10.68
2023-03-20T17:49:01.003Z,5.85
2023-03-20T17:51:29.021Z,4.90
2023-03-20T17:53:57.913Z,5.70
2023-03-20T17:56:30.032Z,7.75
2023-03-20T17:58:57.811Z,4.95
2023-03-20T18:01:26.546Z,4.80
2023-03-20T18:03:53.905Z,4.60
2023-03-20T18:06:27.148Z,4.65
2023-03-20T18:08:55.167Z,6.68
2023-03-20T18:11:22.634Z,5.82
2023-03-20T18:13:50.102Z,5.78
2023-03-20T18:16:24.997Z,5.18
2023-03-20T18:18:52.702Z,6.97
2023-03-20T18:21:20.108Z,5.20
2023-03-20T18:23:47.579Z,6.05
2023-03-20T18:26:25.579Z,7.53
2023-03-20T18:28:53.767Z,4.35
2023-03-20T18:31:21.365Z,4.85
2023-03-20T18:33:52.567Z,6.40
2023-03-20T18:36:24.009Z,8.35
2023-03-20T18:38:51.646Z,4.78
2023-03-20T18:41:19.090Z,7.38
2023-03-20T18:43:46.727Z,9.45
2023-03-20T18:46:14.902Z,7.03
2023-03-20T18:48:42.715Z,8.60
2023-03-20T18:51:10.272Z,7.75
2023-03-20T18:53:37.741Z,5.80
2023-03-20T18:56:06.901Z,5.88
2023-03-20T18:58:34.372Z,6.07
2023-03-20T19:01:01.728Z,7.57
2023-03-20T19:03:29.521Z,7.18
2023-03-20T19:05:57.985Z,9.85
2023-03-20T19:08:25.362Z,6.93
2023-03-20T19:10:52.721Z,6.43
2023-03-20T19:13:21.105Z,9.52
2023-03-20T19:15:48.531Z,8.40
2023-03-20T19:18:23.103Z,13.20
2023-03-20T19:20:57.344Z,7.47
2023-03-20T19:23:25.804Z,8.73
2023-03-20T19:25:53.897Z,8.20
2023-03-20T19:28:37.254Z,7.30
2023-03-20T19:31:06.554Z,5.60
2023-03-20T19:33:34.330Z,7.45
2023-03-20T19:36:03.915Z,7.78
2023-03-20T19:38:31.904Z,6.90
2023-03-20T19:41:00.003Z,9.32
2023-03-20T19:43:29.048Z,9.90
2023-03-20T19:45:59.122Z,8.88
2023-03-20T19:48:43.336Z,6.78
2023-03-20T19:51:18.255Z,6.45
2023-03-20T19:53:46.114Z,8.95
2023-03-20T19:56:14.016Z,15.95
2023-03-20T19:58:41.452Z,7.68
2023-03-20T20:01:15.577Z,10.25
2023-03-20T20:06:10.526Z,8.80
2023-03-20T20:08:49.018Z,10.68
2023-03-20T20:11:20.591Z,9.48
2023-03-20T20:16:36.485Z,8.15
2023-03-20T20:19:04.060Z,8.77
2023-03-20T20:24:19.039Z,11.30
2023-03-20T20:27:03.180Z,8.93
2023-03-20T20:29:34.621Z,7.97
2023-03-20T20:32:02.358Z,10.13
2023-03-20T20:40:06.772Z,8.75
2023-03-20T20:42:34.547Z,6.05
2023-03-20T20:45:01.887Z,7.25
2023-03-20T20:47:29.282Z,6.95
2023-03-20T20:49:58.950Z,9.55
2023-03-20T20:52:29.173Z,9.55
2023-03-20T20:54:56.964Z,8.48
2023-03-20T20:57:24.649Z,8.90
2023-03-20T21:00:02.214Z,10.70
2023-03-20T21:02:32.829Z,9.13
2023-03-20T21:05:00.673Z,8.95
2023-03-20T21:07:28.061Z,6.55
2023-03-20T21:09:55.438Z,11.55
2023-03-20T21:12:34.748Z,9.50
2023-03-20T21:15:04.414Z,7.03
2023-03-20T21:17:31.730Z,5.97
2023-03-20T21:19:59.071Z,6.13
2023-03-20T21:22:26.442Z,5.40
2023-03-20T21:25:07.110Z,11.25
2023-03-20T21:27:41.020Z,8.23
2023-03-20T21:30:08.883Z,6.03
2023-03-20T21:32:36.985Z,7.05
2023-03-20T21:35:07.284Z,6.78
2023-03-20T21:38:33.363Z,9.80
2023-03-20T21:40:22.710Z,5.97
2023-03-20T21:42:50.106Z,5.95
2023-03-20T21:48:37.759Z,6.85
2023-03-20T21:51:42.382Z,6.60
2023-03-20T21:57:21.190Z,6.13
2023-03-20T21:59:50.956Z,8.65
2023-03-20T22:02:14.413Z,4.55
2023-03-20T22:11:18.276Z,5.20
2023-03-20T22:16:36.006Z,7.38
2023-03-20T22:22:05.557Z,6.78
2023-03-20T22:30:53.376Z,4.68
2023-03-20T22:33:26.337Z,6.50
2023-03-20T22:39:04.047Z,6.70
2023-03-20T22:44:47.932Z,5.20
2023-03-20T22:46:45.741Z,6.57
2023-03-20T22:49:14.102Z,8.50
2023-03-20T22:51:57.441Z,7.45
2023-03-20T22:54:28.822Z,6.07
2023-03-20T22:56:56.277Z,6.97
2023-03-20T22:59:23.714Z,4.70
2023-03-20T23:01:51.223Z,4.93
2023-03-20T23:04:18.617Z,6.22
2023-03-20T23:06:46.029Z,9.20
2023-03-20T23:09:15.741Z,7.47
2023-03-20T23:11:43.658Z,7.03
2023-03-20T23:14:20.518Z,4.28
2023-03-20T23:16:50.480Z,4.68
2023-03-20T23:19:18.002Z,5.95
2023-03-20T23:21:45.345Z,4.43
2023-03-20T23:24:12.636Z,5.05
2023-03-20T23:26:40.374Z,8.05
2023-03-20T23:29:07.777Z,4.75
2023-03-20T23:31:35.352Z,4.70
2023-03-20T23:34:02.747Z,6.63
2023-03-20T23:36:36.897Z,6.07
2023-03-20T23:39:08.457Z,7.05
2023-03-20T23:42:04.725Z,7.15
2023-03-20T23:44:23.339Z,8.45
2023-03-20T23:46:50.898Z,7.20
2023-03-20T23:49:18.196Z,8.40
2023-03-20T23:51:45.960Z,8.13
2023-03-20T23:54:13.361Z,6.53
2023-03-20T23:56:40.733Z,9.73
2023-03-20T23:59:20.537Z,7.10
